Time;durP1;ratioP1;P1;durP2;ratioP2;P2;SDS_P1;SDS_P2;PMS_P1;PMS_P2;Temp;Humidity;BMP_temperature;BMP_pressure;BME280_temperature;BME280_humidity;BME280_pressure;Samples;Min_cycle;Max_cycle;Signal;HPM_P1;HPM_P2
2022/07/29 00:00:06;;;;;;;;;;;27.40;41.50;;;;;;1544062;75;814;-65
2022/07/29 00:02:08;;;;;;;;;;;27.40;41.50;;;;;;1539579;76;742;-65
2022/07/29 00:04:10;;;;;;;;;;;27.30;41.60;;;;;;1535216;76;1917;-65
2022/07/29 00:06:12;;;;;;;;;;;27.30;41.60;;;;;;1528208;77;1175;-65
2022/07/29 00:08:15;;;;;;;;;;;27.40;41.70;;;;;;1542973;75;1595;-65
2022/07/29 00:10:17;;;;;;;;;;;27.30;41.80;;;;;;1544728;75;702;-65
2022/07/29 00:12:20;;;;;;;;;;;27.30;41.80;;;;;;1541291;75;623;-66
2022/07/29 00:14:22;;;;;;;;;;;27.40;41.80;;;;;;1539582;77;1040;-65
2022/07/29 00:16:24;;;;;;;;;;;27.40;41.80;;;;;;1538093;75;1181;-65
2022/07/29 00:18:26;;;;;;;;;;;27.40;41.80;;;;;;1538852;75;631;-62
2022/07/29 00:20:28;;;;;;;;;;;27.30;41.70;;;;;;1546444;75;684;-65
2022/07/29 00:22:29;;;;;;;;;;;27.30;41.80;;;;;;1547064;75;694;-64
2022/07/29 00:24:31;;;;;;;;;;;27.40;41.90;;;;;;1534530;75;1929;-65
2022/07/29 00:26:33;;;;;;;;;;;27.40;41.80;;;;;;1545224;75;1115;-66
2022/07/29 00:28:35;;;;;;;;;;;27.40;41.80;;;;;;1546914;75;698;-66
2022/07/29 00:30:37;;;;;;;;;;;27.40;41.80;;;;;;1540600;75;797;-66
2022/07/29 00:32:39;;;;;;;;;;;27.40;41.80;;;;;;1535735;76;740;-66
2022/07/29 00:37:00;;;;;;;;;;;27.40;41.80;;;;;;1539285;75;1252;-67
2022/07/29 00:39:02;;;;;;;;;;;27.40;41.90;;;;;;1546616;75;756;-64
2022/07/29 00:41:04;;;;;;;;;;;27.40;41.90;;;;;;1542039;75;644;-66
2022/07/29 00:43:06;;;;;;;;;;;27.40;41.80;;;;;;1538465;75;769;-65
2022/07/29 00:45:08;;;;;;;;;;;27.40;41.80;;;;;;1538332;75;1940;-63
2022/07/29 00:47:10;;;;;;;;;;;27.40;41.90;;;;;;1536042;77;1137;-63
2022/07/29 00:49:13;;;;;;;;;;;27.40;41.90;;;;;;1538949;76;758;-64
2022/07/29 00:51:15;;;;;;;;;;;27.40;41.80;;;;;;1528223;76;745;-63
2022/07/29 00:53:16;;;;;;;;;;;27.40;41.80;;;;;;1526794;75;687;-65
2022/07/29 00:55:18;;;;;;;;;;;27.40;41.80;;;;;;1536770;75;730;-64
2022/07/29 00:57:20;;;;;;;;;;;27.40;41.80;;;;;;1550557;73;2050;-66
2022/07/29 00:59:22;;;;;;;;;;;27.40;41.80;;;;;;1567977;74;706;-68
2022/07/29 01:01:24;;;;;;;;;;;27.40;41.90;;;;;;1552609;74;640;-65
2022/07/29 01:03:26;;;;;;;;;;;27.40;41.90;;;;;;1568248;74;716;-64
2022/07/29 01:05:28;;;;;;;;;;;27.40;42.00;;;;;;1565878;74;1942;-64
2022/07/29 01:07:30;;;;;;;;;;;27.40;41.90;;;;;;1577088;74;1208;-65
2022/07/29 01:09:32;;;;;;;;;;;27.40;41.90;;;;;;1571078;74;699;-64
2022/07/29 01:11:34;;;;;;;;;;;27.40;42.00;;;;;;1565444;74;629;-64
2022/07/29 01:13:36;;;;;;;;;;;27.40;41.90;;;;;;1562173;74;686;-64
2022/07/29 01:15:39;;;;;;;;;;;27.40;41.90;;;;;;1557141;74;691;-65
2022/07/29 01:17:43;;;;;;;;;;;27.40;41.90;;;;;;1563265;74;1219;-69
2022/07/29 01:20:03;;;;;;;;;;;27.40;41.90;;;;;;1565800;74;689;-65
2022/07/29 01:22:09;;;;;;;;;;;27.40;42.00;;;;;;1553025;74;803;-68
2022/07/29 01:24:30;;;;;;;;;;;27.40;42.10;;;;;;1547473;74;1947;-67
2022/07/29 01:26:33;;;;;;;;;;;27.40;42.00;;;;;;1569845;74;1136;-66
2022/07/29 01:28:52;;;;;;;;;;;27.40;42.00;;;;;;1566604;74;1677;-65
2022/07/29 01:30:54;;;;;;;;;;;27.40;42.00;;;;;;1567579;74;696;-65
2022/07/29 01:32:58;;;;;;;;;;;27.40;41.90;;;;;;1559681;75;676;-65
2022/07/29 01:35:03;;;;;;;;;;;27.50;41.90;;;;;;1555277;74;1482;-66
2022/07/29 01:37:10;;;;;;;;;;;27.40;41.90;;;;;;1557243;74;1104;-68
2022/07/29 01:39:13;;;;;;;;;;;27.40;41.90;;;;;;1562300;74;1562;-66
2022/07/29 01:41:17;;;;;;;;;;;27.50;41.90;;;;;;1565272;74;678;-65
2022/07/29 01:43:20;;;;;;;;;;;27.40;41.90;;;;;;1563559;74;1092;-69
2022/07/29 01:45:24;;;;;;;;;;;27.50;41.80;;;;;;1567418;74;1922;-66
2022/07/29 01:47:27;;;;;;;;;;;27.50;41.80;;;;;;1563556;74;1148;-66
2022/07/29 01:49:30;;;;;;;;;;;27.50;41.80;;;;;;1561377;74;698;-66
2022/07/29 01:51:46;;;;;;;;;;;27.40;41.90;;;;;;1562514;74;687;-66
2022/07/29 01:53:55;;;;;;;;;;;27.50;41.80;;;;;;1571609;74;792;-65
2022/07/29 01:55:57;;;;;;;;;;;27.40;41.80;;;;;;1566721;74;714;-69
2022/07/29 01:57:59;;;;;;;;;;;27.40;41.80;;;;;;1570889;74;1097;-65
2022/07/29 02:00:01;;;;;;;;;;;27.40;41.80;;;;;;1558732;74;1570;-65
2022/07/29 02:02:03;;;;;;;;;;;27.40;41.80;;;;;;1567330;74;720;-65
2022/07/29 02:04:06;;;;;;;;;;;27.40;41.80;;;;;;1570836;74;1923;-65
2022/07/29 02:06:07;;;;;;;;;;;27.40;41.80;;;;;;1564944;74;606;-68
2022/07/29 02:08:09;;;;;;;;;;;27.40;41.80;;;;;;1568810;74;1150;-65
2022/07/29 02:10:11;;;;;;;;;;;27.40;41.80;;;;;;1563694;74;677;-65
2022/07/29 02:12:13;;;;;;;;;;;27.40;41.80;;;;;;1576823;74;706;-65
2022/07/29 02:14:16;;;;;;;;;;;27.40;41.70;;;;;;1568770;74;699;-66
2022/07/29 02:16:18;;;;;;;;;;;27.40;41.70;;;;;;1573304;74;1171;-65
2022/07/29 02:18:21;;;;;;;;;;;27.40;41.70;;;;;;1572628;74;691;-66
2022/07/29 02:20:23;;;;;;;;;;;27.40;41.70;;;;;;1571492;74;670;-69
2022/07/29 02:22:25;;;;;;;;;;;27.40;41.80;;;;;;1568923;74;731;-68
2022/07/29 02:24:27;;;;;;;;;;;27.40;41.70;;;;;;1569376;74;1930;-66
2022/07/29 02:26:28;;;;;;;;;;;27.40;41.70;;;;;;1566940;74;1187;-66
2022/07/29 02:28:30;;;;;;;;;;;27.30;41.70;;;;;;1568238;74;616;-67
2022/07/29 02:30:32;;;;;;;;;;;27.40;41.70;;;;;;1562883;74;634;-66
2022/07/29 02:32:36;;;;;;;;;;;27.40;41.70;;;;;;1567831;74;645;-66
2022/07/29 02:34:38;;;;;;;;;;;27.40;41.70;;;;;;1564360;74;1021;-72
2022/07/29 02:36:40;;;;;;;;;;;27.40;41.80;;;;;;1555337;74;1150;-69
2022/07/29 02:38:51;;;;;;;;;;;27.40;41.70;;;;;;1566219;74;672;-67
2022/07/29 02:40:53;;;;;;;;;;;27.40;41.60;;;;;;1561259;74;696;-66
2022/07/29 02:42:55;;;;;;;;;;;27.40;41.60;;;;;;1562148;74;680;-64
2022/07/29 02:44:57;;;;;;;;;;;27.40;41.60;;;;;;1571584;74;1931;-67
2022/07/29 02:47:06;;;;;;;;;;;27.40;41.60;;;;;;1566019;74;1122;-69
2022/07/29 02:49:10;;;;;;;;;;;27.40;41.60;;;;;;1572099;74;725;-68
2022/07/29 02:51:16;;;;;;;;;;;27.40;41.60;;;;;;1579124;74;1858;-66
2022/07/29 02:53:19;;;;;;;;;;;27.30;41.50;;;;;;1567977;74;1906;-66
2022/07/29 02:55:25;;;;;;;;;;;27.30;41.50;;;;;;1566659;74;615;-65
2022/07/29 02:57:44;;;;;;;;;;;27.30;41.50;;;;;;1568608;74;1525;-66
2022/07/29 02:59:46;;;;;;;;;;;27.40;41.50;;;;;;1493460;78;1295;-66
2022/07/29 03:01:48;;;;;;;;;;;27.40;41.50;;;;;;1519776;74;931;-68
2022/07/29 03:03:50;;;;;;;;;;;27.40;41.50;;;;;;1563742;74;685;-65
2022/07/29 03:05:54;;;;;;;;;;;27.40;41.60;;;;;;1565262;75;1945;-68
2022/07/29 03:07:57;;;;;;;;;;;27.30;41.50;;;;;;1568956;74;1080;-66
2022/07/29 03:09:58;;;;;;;;;;;27.40;41.60;;;;;;1565231;74;723;-67
2022/07/29 03:12:00;;;;;;;;;;;27.30;41.60;;;;;;1570579;74;818;-69
2022/07/29 03:14:03;;;;;;;;;;;27.30;41.50;;;;;;1573501;74;718;-65
2022/07/29 03:16:05;;;;;;;;;;;27.30;41.50;;;;;;1564561;74;667;-65
2022/07/29 03:18:07;;;;;;;;;;;27.30;41.50;;;;;;1564793;75;1059;-65
2022/07/29 03:20:10;;;;;;;;;;;27.30;41.50;;;;;;1566540;74;835;-67
2022/07/29 03:22:12;;;;;;;;;;;27.30;41.50;;;;;;1562802;74;727;-64
2022/07/29 03:24:27;;;;;;;;;;;27.30;41.50;;;;;;1565491;74;682;-66
2022/07/29 03:26:29;;;;;;;;;;;27.30;41.50;;;;;;1557536;75;1157;-67
2022/07/29 03:28:31;;;;;;;;;;;27.20;41.40;;;;;;1556790;74;697;-66
2022/07/29 03:30:33;;;;;;;;;;;27.30;41.40;;;;;;1569036;74;679;-66
2022/07/29 03:32:35;;;;;;;;;;;27.30;41.50;;;;;;1553431;74;599;-68
2022/07/29 03:34:37;;;;;;;;;;;27.30;41.40;;;;;;1566858;74;550;-68
2022/07/29 03:36:39;;;;;;;;;;;27.30;41.30;;;;;;1561022;75;1117;-70
2022/07/29 03:38:41;;;;;;;;;;;27.30;41.30;;;;;;1561605;74;714;-67
2022/07/29 03:40:50;;;;;;;;;;;27.30;41.30;;;;;;1570524;74;669;-68
2022/07/29 03:42:52;;;;;;;;;;;27.20;41.30;;;;;;1563756;74;628;-67
2022/07/29 03:44:54;;;;;;;;;;;27.30;41.30;;;;;;1563419;74;1918;-67
2022/07/29 03:46:56;;;;;;;;;;;27.30;41.30;;;;;;1572937;74;1163;-67
2022/07/29 03:48:59;;;;;;;;;;;27.30;41.30;;;;;;1569195;74;658;-67
2022/07/29 03:51:01;;;;;;;;;;;27.30;41.30;;;;;;1581514;74;678;-67
2022/07/29 03:53:02;;;;;;;;;;;27.30;41.30;;;;;;1565526;74;1435;-66
2022/07/29 03:55:05;;;;;;;;;;;27.30;41.30;;;;;;1571454;74;701;-67
2022/07/29 03:57:07;;;;;;;;;;;27.30;41.30;;;;;;1576034;74;1098;-66
2022/07/29 03:59:09;;;;;;;;;;;27.30;41.30;;;;;;1571923;74;771;-67
2022/07/29 04:01:10;;;;;;;;;;;27.30;41.30;;;;;;1563988;74;644;-67
2022/07/29 04:03:12;;;;;;;;;;;27.30;41.30;;;;;;1563387;74;691;-70
2022/07/29 04:05:14;;;;;;;;;;;27.30;41.30;;;;;;1556740;74;1908;-67
2022/07/29 04:07:16;;;;;;;;;;;27.30;41.20;;;;;;1556512;74;1110;-67
2022/07/29 04:09:18;;;;;;;;;;;27.30;41.30;;;;;;1557035;74;665;-66
2022/07/29 04:11:20;;;;;;;;;;;27.30;41.30;;;;;;1554005;74;700;-67
2022/07/29 04:13:22;;;;;;;;;;;27.30;41.30;;;;;;1555814;74;671;-66
2022/07/29 04:15:24;;;;;;;;;;;27.30;41.30;;;;;;1552345;74;661;-66
2022/07/29 04:17:26;;;;;;;;;;;27.30;41.40;;;;;;1565169;74;1146;-68
2022/07/29 04:19:27;;;;;;;;;;;27.30;41.40;;;;;;1552295;74;637;-69
2022/07/29 04:21:29;;;;;;;;;;;27.30;41.40;;;;;;1555003;74;693;-67
2022/07/29 04:23:33;;;;;;;;;;;27.30;41.40;;;;;;1548204;75;684;-67
2022/07/29 04:25:36;;;;;;;;;;;27.30;41.40;;;;;;1556071;74;1908;-67
2022/07/29 04:27:59;;;;;;;;;;;27.30;41.40;;;;;;1560854;74;1208;-69
2022/07/29 04:29:42;;;;;;;;;;;27.20;41.30;;;;;;1548522;74;1288;-65
2022/07/29 04:31:44;;;;;;;;;;;27.30;41.30;;;;;;1557061;74;730;-66
2022/07/29 04:33:45;;;;;;;;;;;27.30;41.20;;;;;;1549008;74;663;-65
2022/07/29 04:35:47;;;;;;;;;;;27.30;41.30;;;;;;1558405;74;763;-65
2022/07/29 04:37:49;;;;;;;;;;;27.30;41.40;;;;;;1567325;74;1152;-66
2022/07/29 04:39:51;;;;;;;;;;;27.30;41.50;;;;;;1563015;74;678;-69
2022/07/29 04:41:53;;;;;;;;;;;27.30;41.40;;;;;;1572695;74;719;-64
2022/07/29 04:43:55;;;;;;;;;;;27.30;41.30;;;;;;1566806;74;687;-65
2022/07/29 04:45:57;;;;;;;;;;;27.30;41.40;;;;;;1567656;74;1922;-64
2022/07/29 04:47:59;;;;;;;;;;;27.20;41.40;;;;;;1575908;74;1206;-64
2022/07/29 04:50:00;;;;;;;;;;;27.30;41.40;;;;;;1570936;74;1326;-65
2022/07/29 04:52:02;;;;;;;;;;;27.30;41.30;;;;;;1571755;74;673;-65
2022/07/29 04:54:04;;;;;;;;;;;27.30;41.30;;;;;;1560148;74;620;-67
2022/07/29 04:56:06;;;;;;;;;;;27.30;41.30;;;;;;1550033;74;653;-67
2022/07/29 04:58:08;;;;;;;;;;;27.20;41.50;;;;;;1553071;74;1108;-66
2022/07/29 05:00:10;;;;;;;;;;;27.30;41.40;;;;;;1554416;74;757;-65
2022/07/29 05:02:12;;;;;;;;;;;27.30;41.40;;;;;;1555053;74;696;-67
2022/07/29 05:04:14;;;;;;;;;;;27.30;41.40;;;;;;1552540;75;702;-65
2022/07/29 05:06:16;;;;;;;;;;;27.30;41.50;;;;;;1550514;74;1941;-65
2022/07/29 05:08:18;;;;;;;;;;;27.20;41.70;;;;;;1554759;74;685;-66
2022/07/29 05:10:20;;;;;;;;;;;27.30;41.40;;;;;;1558243;74;639;-65
2022/07/29 05:12:21;;;;;;;;;;;27.40;41.40;;;;;;1566991;74;737;-67
2022/07/29 05:14:23;;;;;;;;;;;27.40;41.40;;;;;;1566892;75;715;-71
2022/07/29 05:16:25;;;;;;;;;;;27.40;41.50;;;;;;1564454;74;1247;-64
2022/07/29 05:18:28;;;;;;;;;;;27.40;41.40;;;;;;1559168;74;779;-64
2022/07/29 05:20:30;;;;;;;;;;;27.50;41.20;;;;;;1562496;74;641;-64
2022/07/29 05:22:32;;;;;;;;;;;27.50;41.30;;;;;;1564076;74;732;-67
2022/07/29 05:24:34;;;;;;;;;;;27.40;41.40;;;;;;1553502;75;570;-64
2022/07/29 05:26:36;;;;;;;;;;;27.50;41.40;;;;;;1553780;74;1941;-64
2022/07/29 05:28:37;;;;;;;;;;;27.40;41.40;;;;;;1555145;74;741;-63
2022/07/29 05:30:39;;;;;;;;;;;27.40;41.40;;;;;;1559574;75;659;-65
2022/07/29 05:32:41;;;;;;;;;;;27.40;41.30;;;;;;1562414;74;706;-72
2022/07/29 05:34:43;;;;;;;;;;;27.40;41.30;;;;;;1551300;74;988;-67
2022/07/29 05:36:45;;;;;;;;;;;27.40;41.30;;;;;;1556113;74;1152;-67
2022/07/29 05:38:47;;;;;;;;;;;27.40;41.30;;;;;;1557528;75;661;-66
2022/07/29 05:40:49;;;;;;;;;;;27.40;41.30;;;;;;1562128;75;706;-67
2022/07/29 05:42:51;;;;;;;;;;;27.40;41.40;;;;;;1557606;74;708;-65
2022/07/29 05:44:54;;;;;;;;;;;27.30;41.50;;;;;;1561318;74;1434;-65
2022/07/29 05:46:56;;;;;;;;;;;27.30;41.50;;;;;;1563207;74;1937;-66
2022/07/29 05:48:57;;;;;;;;;;;27.20;41.60;;;;;;1573049;74;617;-65
2022/07/29 05:50:59;;;;;;;;;;;27.30;41.60;;;;;;1568277;74;665;-65
2022/07/29 05:53:01;;;;;;;;;;;27.30;41.70;;;;;;1569492;74;694;-68
2022/07/29 05:55:05;;;;;;;;;;;27.30;41.70;;;;;;1562054;74;652;-65
2022/07/29 05:57:07;;;;;;;;;;;27.20;41.80;;;;;;1566604;74;1161;-67
2022/07/29 05:59:09;;;;;;;;;;;27.30;41.80;;;;;;1563561;74;637;-67
2022/07/29 06:01:10;;;;;;;;;;;27.20;41.90;;;;;;1566889;74;760;-65
2022/07/29 06:03:12;;;;;;;;;;;27.20;41.90;;;;;;1556000;74;800;-67
2022/07/29 06:05:15;;;;;;;;;;;27.30;42.00;;;;;;1561686;74;696;-65
2022/07/29 06:07:17;;;;;;;;;;;27.20;41.90;;;;;;1570405;74;1959;-67
2022/07/29 06:09:18;;;;;;;;;;;27.20;42.00;;;;;;1563021;74;717;-66
2022/07/29 06:11:20;;;;;;;;;;;27.30;42.00;;;;;;1563403;74;574;-66
2022/07/29 06:13:22;;;;;;;;;;;27.20;42.00;;;;;;1560125;74;695;-66
2022/07/29 06:15:24;;;;;;;;;;;27.20;42.00;;;;;;1563353;74;737;-67
2022/07/29 06:17:26;;;;;;;;;;;27.30;42.00;;;;;;1568214;74;1153;-66
2022/07/29 06:19:28;;;;;;;;;;;27.20;42.00;;;;;;1557373;75;638;-66
2022/07/29 06:21:30;;;;;;;;;;;27.20;42.00;;;;;;1563344;74;561;-67
2022/07/29 06:23:32;;;;;;;;;;;27.30;42.00;;;;;;1575019;74;568;-65
2022/07/29 06:25:39;;;;;;;;;;;27.20;42.00;;;;;;1556362;74;1934;-66
2022/07/29 06:27:37;;;;;;;;;;;27.30;42.00;;;;;;1559177;74;1570;-69
2022/07/29 06:29:39;;;;;;;;;;;27.40;42.00;;;;;;1572611;74;719;-67
2022/07/29 06:31:41;;;;;;;;;;;27.30;42.00;;;;;;1558796;74;750;-69
2022/07/29 06:33:43;;;;;;;;;;;27.30;41.90;;;;;;1558053;74;661;-68
2022/07/29 06:35:47;;;;;;;;;;;27.30;41.90;;;;;;1557727;74;783;-65
2022/07/29 06:37:48;;;;;;;;;;;27.30;41.90;;;;;;1557756;74;1240;-68
2022/07/29 06:40:59;;;;;;;;;;;27.30;41.90;;;;;;1571113;74;595;-68
2022/07/29 06:41:54;;;;;;;;;;;27.40;41.80;;;;;;1555380;74;1459;-69
2022/07/29 06:43:56;;;;;;;;;;;27.30;41.80;;;;;;1570708;74;707;-69
2022/07/29 06:45:59;;;;;;;;;;;27.30;41.80;;;;;;1568335;74;1931;-67
2022/07/29 06:48:01;;;;;;;;;;;27.30;41.90;;;;;;1566481;74;1101;-69
2022/07/29 06:50:04;;;;;;;;;;;27.30;41.90;;;;;;1568094;74;700;-67
2022/07/29 06:52:06;;;;;;;;;;;27.30;42.10;;;;;;1571174;74;731;-67
2022/07/29 06:54:08;;;;;;;;;;;27.30;42.00;;;;;;1563516;74;645;-68
2022/07/29 06:56:12;;;;;;;;;;;27.20;42.10;;;;;;1560306;74;634;-68
2022/07/29 06:58:15;;;;;;;;;;;27.20;42.10;;;;;;1563707;74;2092;-67
2022/07/29 07:00:17;;;;;;;;;;;27.10;42.20;;;;;;1559938;74;664;-65
2022/07/29 07:02:19;;;;;;;;;;;27.20;42.30;;;;;;1556148;74;681;-65
2022/07/29 07:04:21;;;;;;;;;;;27.30;42.50;;;;;;1557438;74;693;-66
2022/07/29 07:06:23;;;;;;;;;;;27.40;42.50;;;;;;1550978;74;1936;-65
2022/07/29 07:08:25;;;;;;;;;;;27.50;42.40;;;;;;1561507;74;1113;-68
2022/07/29 07:10:27;;;;;;;;;;;27.60;42.20;;;;;;1571230;73;939;-66
2022/07/29 07:12:29;;;;;;;;;;;27.70;42.10;;;;;;1572978;73;702;-66
2022/07/29 07:14:31;;;;;;;;;;;27.70;41.80;;;;;;1569212;73;666;-68
2022/07/29 07:16:33;;;;;;;;;;;27.80;41.50;;;;;;1581050;74;689;-65
2022/07/29 07:18:34;;;;;;;;;;;27.90;41.30;;;;;;1578732;74;1117;-66
2022/07/29 07:20:36;;;;;;;;;;;28.00;41.70;;;;;;1560666;74;809;-66
2022/07/29 07:22:38;;;;;;;;;;;28.10;41.50;;;;;;1573257;74;809;-68
2022/07/29 07:24:40;;;;;;;;;;;28.20;41.10;;;;;;1561428;74;696;-66
2022/07/29 07:26:42;;;;;;;;;;;28.10;40.90;;;;;;1566114;74;1927;-69
2022/07/29 07:28:44;;;;;;;;;;;28.10;41.00;;;;;;1558518;74;688;-68
2022/07/29 07:30:46;;;;;;;;;;;28.20;40.90;;;;;;1572630;75;769;-69
2022/07/29 07:32:48;;;;;;;;;;;28.20;40.90;;;;;;1573795;75;681;-68
2022/07/29 07:34:49;;;;;;;;;;;28.20;40.80;;;;;;1566014;74;758;-66
2022/07/29 07:36:51;;;;;;;;;;;28.20;40.80;;;;;;1561083;74;1159;-69
2022/07/29 07:38:53;;;;;;;;;;;28.30;40.70;;;;;;1567459;74;1560;-64
2022/07/29 07:40:55;;;;;;;;;;;28.30;40.50;;;;;;1567393;74;670;-71
2022/07/29 07:42:57;;;;;;;;;;;28.30;40.40;;;;;;1557956;74;665;-66
2022/07/29 07:44:59;;;;;;;;;;;28.30;40.40;;;;;;1559104;74;804;-66
2022/07/29 07:47:01;;;;;;;;;;;28.40;40.50;;;;;;1574309;74;1925;-66
2022/07/29 07:49:03;;;;;;;;;;;28.40;40.50;;;;;;1577345;74;642;-66
2022/07/29 07:51:04;;;;;;;;;;;28.40;40.50;;;;;;1568699;74;674;-66
2022/07/29 07:53:06;;;;;;;;;;;28.40;40.40;;;;;;1574444;74;717;-66
2022/07/29 07:55:09;;;;;;;;;;;28.40;40.30;;;;;;1569863;74;818;-66
2022/07/29 07:57:11;;;;;;;;;;;28.30;40.30;;;;;;1560841;75;1153;-66
2022/07/29 07:59:13;;;;;;;;;;;28.30;40.50;;;;;;1575751;74;851;-66
2022/07/29 08:01:18;;;;;;;;;;;28.20;40.70;;;;;;1565201;74;655;-66
2022/07/29 08:03:18;;;;;;;;;;;28.20;40.70;;;;;;1579325;74;1729;-66
2022/07/29 08:05:20;;;;;;;;;;;28.20;40.90;;;;;;1573565;74;723;-66
2022/07/29 08:07:22;;;;;;;;;;;28.10;40.80;;;;;;1569852;74;1927;-66
2022/07/29 08:09:25;;;;;;;;;;;28.00;40.80;;;;;;1570202;74;617;-66
2022/07/29 08:11:26;;;;;;;;;;;28.00;40.90;;;;;;1565631;74;657;-67
2022/07/29 08:13:29;;;;;;;;;;;28.00;41.00;;;;;;1565787;74;681;-70
2022/07/29 08:15:31;;;;;;;;;;;27.90;40.20;;;;;;1577123;74;767;-70
2022/07/29 08:17:33;;;;;;;;;;;27.90;40.10;;;;;;1581999;74;1128;-68
2022/07/29 08:19:37;;;;;;;;;;;27.90;40.10;;;;;;1577259;74;702;-68
2022/07/29 08:21:38;;;;;;;;;;;27.70;40.00;;;;;;1561502;74;736;-66
2022/07/29 08:23:45;;;;;;;;;;;27.70;40.00;;;;;;1566497;74;597;-66
2022/07/29 08:25:44;;;;;;;;;;;27.70;40.10;;;;;;1573812;74;1686;-67
2022/07/29 08:27:46;;;;;;;;;;;27.70;40.30;;;;;;1571208;74;1938;-68
2022/07/29 08:29:48;;;;;;;;;;;27.70;40.50;;;;;;1572146;75;678;-71
2022/07/29 08:31:50;;;;;;;;;;;27.60;40.50;;;;;;1561866;74;754;-65
2022/07/29 08:33:52;;;;;;;;;;;27.60;40.50;;;;;;1563290;74;1588;-69
2022/07/29 08:35:54;;;;;;;;;;;27.60;40.50;;;;;;1564254;74;745;-67
2022/07/29 08:37:56;;;;;;;;;;;27.60;40.50;;;;;;1574935;74;1131;-64
2022/07/29 08:39:58;;;;;;;;;;;27.60;40.70;;;;;;1581957;74;595;-69
2022/07/29 08:42:00;;;;;;;;;;;27.50;40.70;;;;;;1569416;74;584;-67
2022/07/29 08:44:02;;;;;;;;;;;27.50;40.80;;;;;;1570437;74;743;-66
2022/07/29 08:46:04;;;;;;;;;;;27.60;40.90;;;;;;1575458;74;729;-69
2022/07/29 08:48:06;;;;;;;;;;;27.50;41.00;;;;;;1566584;74;1934;-68
2022/07/29 08:50:08;;;;;;;;;;;27.50;41.00;;;;;;1563243;75;689;-66
2022/07/29 08:52:13;;;;;;;;;;;27.50;41.00;;;;;;1591238;74;719;-66
2022/07/29 08:54:17;;;;;;;;;;;27.50;41.00;;;;;;1571915;74;685;-67
2022/07/29 08:56:19;;;;;;;;;;;27.50;41.00;;;;;;1575023;74;751;-68
2022/07/29 08:58:21;;;;;;;;;;;27.50;41.00;;;;;;1564032;74;1067;-69
2022/07/29 09:00:23;;;;;;;;;;;27.50;41.00;;;;;;1566365;74;624;-70
2022/07/29 09:02:25;;;;;;;;;;;27.50;41.00;;;;;;1563241;74;613;-71
2022/07/29 09:04:29;;;;;;;;;;;27.40;41.10;;;;;;1565841;74;675;-69
2022/07/29 09:06:33;;;;;;;;;;;27.50;41.00;;;;;;1575183;75;1825;-68
2022/07/29 09:08:34;;;;;;;;;;;27.50;41.10;;;;;;1564598;74;1103;-68
2022/07/29 09:10:36;;;;;;;;;;;27.50;41.00;;;;;;1566291;74;724;-68
2022/07/29 09:12:39;;;;;;;;;;;27.40;41.10;;;;;;1572223;74;675;-68
2022/07/29 09:14:41;;;;;;;;;;;27.50;41.10;;;;;;1579603;74;664;-69
2022/07/29 09:16:47;;;;;;;;;;;27.50;41.10;;;;;;1558574;74;1127;-68
2022/07/29 09:18:49;;;;;;;;;;;27.50;41.10;;;;;;1578166;74;761;-68
2022/07/29 09:23:13;;;;;;;;;;;27.60;41.10;;;;;;1566546;75;1640;-68
2022/07/29 09:25:15;;;;;;;;;;;27.50;41.20;;;;;;1560430;74;782;-68
2022/07/29 09:27:26;;;;;;;;;;;27.60;41.10;;;;;;1565399;74;1949;-68
2022/07/29 09:29:28;;;;;;;;;;;27.50;41.10;;;;;;1559235;74;729;-68
2022/07/29 09:31:33;;;;;;;;;;;27.50;41.10;;;;;;1568483;74;1560;-69
2022/07/29 09:33:36;;;;;;;;;;;27.50;41.10;;;;;;1569083;74;640;-68
2022/07/29 09:35:38;;;;;;;;;;;27.50;41.10;;;;;;1572107;74;719;-68
2022/07/29 09:37:40;;;;;;;;;;;27.50;41.00;;;;;;1563119;74;1157;-69
2022/07/29 09:39:46;;;;;;;;;;;27.50;41.10;;;;;;1576155;74;791;-67
2022/07/29 09:41:55;;;;;;;;;;;27.60;41.10;;;;;;1572636;74;1555;-68
2022/07/29 09:43:57;;;;;;;;;;;27.60;41.10;;;;;;1567887;74;817;-68
2022/07/29 09:46:12;;;;;;;;;;;27.50;41.10;;;;;;1573960;74;750;-68
2022/07/29 09:48:15;;;;;;;;;;;27.60;41.00;;;;;;1566539;74;1939;-68
2022/07/29 09:50:23;;;;;;;;;;;27.60;41.00;;;;;;1578440;75;652;-68
2022/07/29 09:52:21;;;;;;;;;;;27.60;41.00;;;;;;1562156;74;1603;-65
2022/07/29 09:54:23;;;;;;;;;;;27.60;41.00;;;;;;1574858;74;679;-68
2022/07/29 09:56:29;;;;;;;;;;;27.60;41.00;;;;;;1574174;74;630;-68
2022/07/29 09:58:33;;;;;;;;;;;27.60;41.00;;;;;;1563922;74;2015;-68
2022/07/29 10:00:34;;;;;;;;;;;27.70;41.00;;;;;;1570912;74;1637;-68
2022/07/29 10:02:37;;;;;;;;;;;27.60;41.00;;;;;;1577668;74;1156;-68
2022/07/29 10:04:43;;;;;;;;;;;27.70;41.00;;;;;;1574837;74;677;-69
2022/07/29 10:06:57;;;;;;;;;;;27.70;41.00;;;;;;1563772;74;1130;-69
2022/07/29 10:09:09;;;;;;;;;;;27.60;40.90;;;;;;1567270;74;695;-68
2022/07/29 10:11:11;;;;;;;;;;;27.70;41.00;;;;;;1563913;74;676;-70
2022/07/29 10:13:14;;;;;;;;;;;27.60;40.90;;;;;;1567572;74;717;-68
2022/07/29 10:15:15;;;;;;;;;;;27.70;40.90;;;;;;1568124;74;891;-71
2022/07/29 10:17:18;;;;;;;;;;;27.70;41.00;;;;;;1574872;74;1129;-68
2022/07/29 10:19:20;;;;;;;;;;;27.70;41.00;;;;;;1569156;74;662;-68
2022/07/29 10:21:22;;;;;;;;;;;27.60;40.90;;;;;;1572373;74;693;-68
2022/07/29 10:23:24;;;;;;;;;;;27.70;40.90;;;;;;1567333;74;613;-68
2022/07/29 10:25:26;;;;;;;;;;;27.70;40.90;;;;;;1560661;74;663;-69
2022/07/29 10:27:28;;;;;;;;;;;27.70;40.80;;;;;;1579940;74;1951;-68
2022/07/29 10:29:31;;;;;;;;;;;27.70;40.80;;;;;;1568263;74;728;-68
2022/07/29 10:31:34;;;;;;;;;;;27.80;40.70;;;;;;1559473;74;708;-68
2022/07/29 10:33:38;;;;;;;;;;;27.80;40.70;;;;;;1566571;74;1733;-70
2022/07/29 10:35:58;;;;;;;;;;;27.80;40.60;;;;;;1558588;74;1689;-68
2022/07/29 10:38:17;;;;;;;;;;;27.80;40.70;;;;;;1577841;74;1151;-68
2022/07/29 10:42:43;;;;;;;;;;;27.80;40.60;;;;;;1568647;74;1659;-69
2022/07/29 10:44:45;;;;;;;;;;;27.80;40.60;;;;;;1580028;74;816;-70
2022/07/29 10:46:47;;;;;;;;;;;27.80;40.60;;;;;;1575611;74;1147;-66
2022/07/29 10:49:07;;;;;;;;;;;27.80;40.60;;;;;;1581921;74;1959;-67
2022/07/29 10:51:09;;;;;;;;;;;27.80;40.50;;;;;;1574609;74;737;-68
2022/07/29 10:53:11;;;;;;;;;;;27.80;40.50;;;;;;1574496;74;765;-68
2022/07/29 10:55:32;;;;;;;;;;;27.80;40.50;;;;;;1581213;74;817;-68
2022/07/29 10:57:37;;;;;;;;;;;27.80;40.50;;;;;;1571789;74;1169;-68
2022/07/29 10:59:37;;;;;;;;;;;27.80;40.50;;;;;;1571573;74;1675;-68
2022/07/29 11:01:39;;;;;;;;;;;27.80;40.50;;;;;;1561608;74;704;-69
2022/07/29 11:03:44;;;;;;;;;;;27.80;40.50;;;;;;1570883;74;761;-68
2022/07/29 11:05:55;;;;;;;;;;;27.80;40.50;;;;;;1573303;74;738;-68
2022/07/29 11:08:23;;;;;;;;;;;27.80;40.40;;;;;;1562247;74;1947;-69
2022/07/29 11:10:21;;;;;;;;;;;27.80;40.50;;;;;;1565471;74;1608;-68
2022/07/29 11:12:40;;;;;;;;;;;27.80;40.50;;;;;;1561338;74;706;-68
2022/07/29 11:14:56;;;;;;;;;;;27.80;40.50;;;;;;1565261;74;744;-68
2022/07/29 11:17:02;;;;;;;;;;;27.80;40.50;;;;;;1572288;74;1157;-71
2022/07/29 11:19:15;;;;;;;;;;;27.80;40.50;;;;;;1561938;74;669;-68
2022/07/29 11:21:35;;;;;;;;;;;27.80;40.50;;;;;;1559827;74;695;-68
2022/07/29 11:23:39;;;;;;;;;;;27.80;40.50;;;;;;1559916;74;1577;-68
2022/07/29 11:25:41;;;;;;;;;;;27.80;40.50;;;;;;1576690;74;679;-68
2022/07/29 11:27:43;;;;;;;;;;;27.80;40.50;;;;;;1576229;74;1932;-70
2022/07/29 11:29:49;;;;;;;;;;;27.80;40.50;;;;;;1561732;74;775;-70
2022/07/29 11:31:55;;;;;;;;;;;27.80;40.50;;;;;;1569806;74;753;-68
2022/07/29 11:33:57;;;;;;;;;;;27.80;40.50;;;;;;1577044;74;798;-68
2022/07/29 11:36:09;;;;;;;;;;;27.80;40.50;;;;;;1562580;75;727;-68
2022/07/29 11:38:25;;;;;;;;;;;27.80;40.50;;;;;;1572734;74;1178;-68
2022/07/29 11:40:27;;;;;;;;;;;27.80;40.50;;;;;;1570484;74;690;-68
2022/07/29 11:42:30;;;;;;;;;;;27.80;40.60;;;;;;1562374;74;756;-67
2022/07/29 11:44:40;;;;;;;;;;;27.80;40.60;;;;;;1564071;74;715;-68
2022/07/29 11:46:49;;;;;;;;;;;27.80;40.60;;;;;;1564592;74;1580;-70
2022/07/29 11:48:51;;;;;;;;;;;27.80;40.60;;;;;;1568040;74;1906;-68
2022/07/29 11:50:52;;;;;;;;;;;27.80;40.50;;;;;;1565677;74;745;-69
2022/07/29 11:52:54;;;;;;;;;;;27.80;40.60;;;;;;1581772;74;792;-70
2022/07/29 11:54:57;;;;;;;;;;;27.80;40.60;;;;;;1563634;74;711;-71
2022/07/29 11:56:59;;;;;;;;;;;27.80;40.50;;;;;;1544922;75;1163;-70
2022/07/29 11:59:09;;;;;;;;;;;27.80;40.60;;;;;;1565964;74;683;-70
2022/07/29 12:01:12;;;;;;;;;;;27.80;40.60;;;;;;1591406;73;800;-68
2022/07/29 12:03:14;;;;;;;;;;;27.70;40.60;;;;;;1572233;73;1335;-68
2022/07/29 12:05:16;;;;;;;;;;;27.80;40.60;;;;;;1586654;73;1138;-69
2022/07/29 12:07:18;;;;;;;;;;;27.70;40.60;;;;;;1533545;76;1125;-68
2022/07/29 12:09:20;;;;;;;;;;;27.70;40.70;;;;;;1529431;77;1939;-68
2022/07/29 12:11:22;;;;;;;;;;;27.70;40.70;;;;;;1536322;76;652;-69
2022/07/29 12:13:24;;;;;;;;;;;27.70;40.70;;;;;;1520068;75;664;-70
2022/07/29 12:15:26;;;;;;;;;;;27.70;40.70;;;;;;1525702;76;669;-69
2022/07/29 12:17:29;;;;;;;;;;;27.70;40.70;;;;;;1582610;73;1164;-68
2022/07/29 12:19:31;;;;;;;;;;;27.70;40.70;;;;;;1587867;73;1520;-68
2022/07/29 12:21:49;;;;;;;;;;;27.70;40.70;;;;;;1554813;74;1063;-68